Archival Weather

NSFA McMurdo Sound

NSFA McMurdo Sound, Antarctica (NZCM)

Report from: Friday, September 23, 2022 3:06 PM UTC
Current time: Sunday, December 4, 2022 12:53 PM UTC

Current weather
Weather history
Weather forecast

Present weatherLight snow, mist
Temperature-18.9°C (-2.0°F)
Wind chill-29.1°C (-20.5°F)
Dew point-23.4°C (-10.1°F)
Winds 11 kts (5.7 m/s, 12.7 mph) Vrb
Wind gusts 16 kts (8.2 m/s, 18.4 mph)
Winds variableWinds variable from East-Northeast (70°) to Southeast (130°)
Visibility1 mi. (1.6 km)
Clouds Ceiling: Broken clouds 1,600 ft. (488 m)
Overcast 3,700 ft. (1,128 m)
Altimeter28.62 in.Hg (969 mB)
Precip. events Snow began 3:06 PM
Relative humidity67 %
Density altitude-2,753 ft. (-839 m)
Sea-level pressure107.0 kPa (1070 mB, 31.59 in.Hg)
Remarks Fully automated report
System requires maintenance
Special weather observation
Automated weather observing station with precipitation discriminator
Flight conditions Low Instrument Meteorological Conditions
Raw dataSPECI NZCM 231506Z AUTO 09011G16KT 070V130 1600 -SN BR BKN016 OVC037 M19/M23 A2862 RMK AO2 SNB1506 SLP698 T11891234 $
An error has occurred. This application may no longer respond until reloaded. Reload 🗙